sensor_id;sensor_type;location;lat;lon;timestamp;P1;durP1;ratioP1;P2;durP2;ratioP2
23539;SDS011;11947;50.810;4.394;2023-02-28T00:00:35;23.95;;;9.05;;
23539;SDS011;11947;50.810;4.394;2023-02-28T00:03:02;19.00;;;8.60;;
23539;SDS011;11947;50.810;4.394;2023-02-28T00:05:28;17.25;;;8.80;;
23539;SDS011;11947;50.810;4.394;2023-02-28T00:07:54;19.13;;;9.18;;
23539;SDS011;11947;50.810;4.394;2023-02-28T00:10:30;17.17;;;8.48;;
23539;SDS011;11947;50.810;4.394;2023-02-28T00:13:01;18.45;;;8.40;;
23539;SDS011;11947;50.810;4.394;2023-02-28T00:15:28;14.95;;;8.02;;
23539;SDS011;11947;50.810;4.394;2023-02-28T00:17:53;19.75;;;8.48;;
23539;SDS011;11947;50.810;4.394;2023-02-28T00:20:20;21.02;;;8.93;;
23539;SDS011;11947;50.810;4.394;2023-02-28T00:22:47;20.23;;;8.65;;
23539;SDS011;11947;50.810;4.394;2023-02-28T00:25:15;15.85;;;8.15;;
23539;SDS011;11947;50.810;4.394;2023-02-28T00:27:43;20.63;;;8.98;;
23539;SDS011;11947;50.810;4.394;2023-02-28T00:30:10;16.05;;;8.23;;
23539;SDS011;11947;50.810;4.394;2023-02-28T00:32:38;17.40;;;8.45;;
23539;SDS011;11947;50.810;4.394;2023-02-28T00:35:04;15.90;;;8.27;;
23539;SDS011;11947;50.810;4.394;2023-02-28T00:37:31;21.23;;;8.50;;
23539;SDS011;11947;50.810;4.394;2023-02-28T00:39:57;17.90;;;8.10;;
23539;SDS011;11947;50.810;4.394;2023-02-28T00:42:22;14.75;;;8.23;;
23539;SDS011;11947;50.810;4.394;2023-02-28T00:44:49;15.48;;;9.10;;
23539;SDS011;11947;50.810;4.394;2023-02-28T00:47:14;19.25;;;8.55;;
23539;SDS011;11947;50.810;4.394;2023-02-28T00:49:40;21.45;;;8.98;;
23539;SDS011;11947;50.810;4.394;2023-02-28T00:52:06;17.67;;;8.80;;
23539;SDS011;11947;50.810;4.394;2023-02-28T00:54:32;18.70;;;8.60;;
23539;SDS011;11947;50.810;4.394;2023-02-28T00:56:57;21.10;;;9.27;;
23539;SDS011;11947;50.810;4.394;2023-02-28T00:59:24;21.20;;;8.82;;
23539;SDS011;11947;50.810;4.394;2023-02-28T01:01:50;20.58;;;8.98;;
23539;SDS011;11947;50.810;4.394;2023-02-28T01:04:15;20.80;;;8.88;;
23539;SDS011;11947;50.810;4.394;2023-02-28T01:06:41;15.98;;;8.57;;
23539;SDS011;11947;50.810;4.394;2023-02-28T01:09:07;19.10;;;8.45;;
23539;SDS011;11947;50.810;4.394;2023-02-28T01:11:33;23.05;;;8.75;;
23539;SDS011;11947;50.810;4.394;2023-02-28T01:13:59;16.27;;;9.20;;
23539;SDS011;11947;50.810;4.394;2023-02-28T01:16:25;17.92;;;7.95;;
23539;SDS011;11947;50.810;4.394;2023-02-28T01:18:51;22.85;;;8.98;;
23539;SDS011;11947;50.810;4.394;2023-02-28T01:21:17;23.23;;;9.23;;
23539;SDS011;11947;50.810;4.394;2023-02-28T01:23:44;18.02;;;8.73;;
23539;SDS011;11947;50.810;4.394;2023-02-28T01:26:12;19.35;;;9.07;;
23539;SDS011;11947;50.810;4.394;2023-02-28T01:28:39;18.13;;;9.05;;
23539;SDS011;11947;50.810;4.394;2023-02-28T01:31:06;21.00;;;9.13;;
23539;SDS011;11947;50.810;4.394;2023-02-28T01:33:32;18.90;;;9.27;;
23539;SDS011;11947;50.810;4.394;2023-02-28T01:35:59;19.15;;;9.13;;
23539;SDS011;11947;50.810;4.394;2023-02-28T01:38:24;21.98;;;9.40;;
23539;SDS011;11947;50.810;4.394;2023-02-28T01:40:50;20.00;;;9.48;;
23539;SDS011;11947;50.810;4.394;2023-02-28T01:43:55;19.42;;;9.68;;
23539;SDS011;11947;50.810;4.394;2023-02-28T01:46:08;21.60;;;8.55;;
23539;SDS011;11947;50.810;4.394;2023-02-28T01:48:35;19.73;;;9.65;;
23539;SDS011;11947;50.810;4.394;2023-02-28T01:51:23;20.10;;;9.10;;
23539;SDS011;11947;50.810;4.394;2023-02-28T01:53:58;22.10;;;9.50;;
23539;SDS011;11947;50.810;4.394;2023-02-28T01:56:28;17.17;;;9.60;;
23539;SDS011;11947;50.810;4.394;2023-02-28T01:58:55;21.05;;;9.98;;
23539;SDS011;11947;50.810;4.394;2023-02-28T02:01:21;18.08;;;9.77;;
23539;SDS011;11947;50.810;4.394;2023-02-28T02:04:00;23.40;;;9.45;;
23539;SDS011;11947;50.810;4.394;2023-02-28T02:06:28;19.85;;;10.15;;
23539;SDS011;11947;50.810;4.394;2023-02-28T02:09:15;23.83;;;10.18;;
23539;SDS011;11947;50.810;4.394;2023-02-28T02:11:40;23.85;;;10.15;;
23539;SDS011;11947;50.810;4.394;2023-02-28T02:25:18;20.85;;;9.57;;
23539;SDS011;11947;50.810;4.394;2023-02-28T02:45:02;20.83;;;10.25;;
23539;SDS011;11947;50.810;4.394;2023-02-28T02:47:32;22.73;;;10.95;;
23539;SDS011;11947;50.810;4.394;2023-02-28T02:50:03;22.52;;;11.40;;
23539;SDS011;11947;50.810;4.394;2023-02-28T02:52:33;23.05;;;10.82;;
23539;SDS011;11947;50.810;4.394;2023-02-28T02:55:04;26.38;;;11.68;;
23539;SDS011;11947;50.810;4.394;2023-02-28T02:57:36;23.48;;;11.38;;
23539;SDS011;11947;50.810;4.394;2023-02-28T03:00:09;32.38;;;12.48;;
23539;SDS011;11947;50.810;4.394;2023-02-28T03:02:36;21.27;;;11.38;;
23539;SDS011;11947;50.810;4.394;2023-02-28T03:05:07;21.50;;;11.57;;
23539;SDS011;11947;50.810;4.394;2023-02-28T03:07:40;28.33;;;12.13;;
23539;SDS011;11947;50.810;4.394;2023-02-28T03:10:25;25.83;;;13.25;;
23539;SDS011;11947;50.810;4.394;2023-02-28T03:12:56;26.25;;;12.30;;
23539;SDS011;11947;50.810;4.394;2023-02-28T03:15:36;25.35;;;11.57;;
23539;SDS011;11947;50.810;4.394;2023-02-28T03:21:06;27.05;;;12.93;;
23539;SDS011;11947;50.810;4.394;2023-02-28T03:23:45;24.63;;;11.85;;
23539;SDS011;11947;50.810;4.394;2023-02-28T03:26:19;30.60;;;12.75;;
23539;SDS011;11947;50.810;4.394;2023-02-28T03:34:15;27.05;;;12.93;;
23539;SDS011;11947;50.810;4.394;2023-02-28T03:39:19;27.80;;;12.07;;
23539;SDS011;11947;50.810;4.394;2023-02-28T03:44:30;27.33;;;13.52;;
23539;SDS011;11947;50.810;4.394;2023-02-28T03:47:01;26.75;;;13.32;;
23539;SDS011;11947;50.810;4.394;2023-02-28T03:49:53;25.58;;;13.27;;
23539;SDS011;11947;50.810;4.394;2023-02-28T03:52:33;34.40;;;13.52;;
23539;SDS011;11947;50.810;4.394;2023-02-28T03:55:06;27.20;;;13.80;;
23539;SDS011;11947;50.810;4.394;2023-02-28T04:00:25;34.35;;;13.32;;
23539;SDS011;11947;50.810;4.394;2023-02-28T04:02:54;31.52;;;14.10;;
23539;SDS011;11947;50.810;4.394;2023-02-28T04:05:21;40.50;;;14.88;;
23539;SDS011;11947;50.810;4.394;2023-02-28T04:07:47;27.88;;;13.68;;
23539;SDS011;11947;50.810;4.394;2023-02-28T04:10:13;28.17;;;14.05;;
23539;SDS011;11947;50.810;4.394;2023-02-28T04:12:39;29.42;;;13.80;;
23539;SDS011;11947;50.810;4.394;2023-02-28T04:15:05;34.90;;;15.10;;
23539;SDS011;11947;50.810;4.394;2023-02-28T04:17:31;28.25;;;14.60;;
23539;SDS011;11947;50.810;4.394;2023-02-28T04:19:56;35.60;;;14.10;;
23539;SDS011;11947;50.810;4.394;2023-02-28T04:22:22;31.23;;;14.73;;
23539;SDS011;11947;50.810;4.394;2023-02-28T04:24:51;26.85;;;13.80;;
23539;SDS011;11947;50.810;4.394;2023-02-28T04:27:19;28.55;;;14.25;;
23539;SDS011;11947;50.810;4.394;2023-02-28T04:29:45;30.65;;;13.60;;
23539;SDS011;11947;50.810;4.394;2023-02-28T04:32:11;32.53;;;14.55;;
23539;SDS011;11947;50.810;4.394;2023-02-28T04:34:36;33.78;;;15.15;;
23539;SDS011;11947;50.810;4.394;2023-02-28T04:37:02;30.70;;;14.80;;
23539;SDS011;11947;50.810;4.394;2023-02-28T04:39:28;30.08;;;15.00;;
23539;SDS011;11947;50.810;4.394;2023-02-28T04:41:54;28.25;;;13.90;;
23539;SDS011;11947;50.810;4.394;2023-02-28T04:44:20;30.88;;;15.40;;
23539;SDS011;11947;50.810;4.394;2023-02-28T04:46:47;33.35;;;15.45;;
23539;SDS011;11947;50.810;4.394;2023-02-28T04:49:14;34.58;;;14.85;;
23539;SDS011;11947;50.810;4.394;2023-02-28T04:51:40;32.63;;;15.27;;
23539;SDS011;11947;50.810;4.394;2023-02-28T04:54:06;32.45;;;15.73;;
23539;SDS011;11947;50.810;4.394;2023-02-28T04:56:32;44.90;;;16.00;;
23539;SDS011;11947;50.810;4.394;2023-02-28T04:58:57;33.78;;;15.57;;
23539;SDS011;11947;50.810;4.394;2023-02-28T05:03:50;36.20;;;16.00;;
23539;SDS011;11947;50.810;4.394;2023-02-28T05:06:17;33.25;;;15.48;;
23539;SDS011;11947;50.810;4.394;2023-02-28T05:08:43;30.35;;;15.27;;
23539;SDS011;11947;50.810;4.394;2023-02-28T05:11:17;28.95;;;15.25;;
23539;SDS011;11947;50.810;4.394;2023-02-28T05:13:48;38.08;;;16.05;;
23539;SDS011;11947;50.810;4.394;2023-02-28T05:16:14;34.13;;;15.70;;
23539;SDS011;11947;50.810;4.394;2023-02-28T05:18:40;36.40;;;15.23;;
23539;SDS011;11947;50.810;4.394;2023-02-28T05:21:06;33.75;;;16.10;;
23539;SDS011;11947;50.810;4.394;2023-02-28T05:23:56;34.00;;;16.75;;
23539;SDS011;11947;50.810;4.394;2023-02-28T05:26:27;33.92;;;15.07;;
23539;SDS011;11947;50.810;4.394;2023-02-28T05:28:53;33.42;;;15.73;;
23539;SDS011;11947;50.810;4.394;2023-02-28T05:31:18;29.27;;;15.60;;
23539;SDS011;11947;50.810;4.394;2023-02-28T05:33:44;35.75;;;17.23;;
23539;SDS011;11947;50.810;4.394;2023-02-28T05:36:10;30.52;;;15.25;;
23539;SDS011;11947;50.810;4.394;2023-02-28T05:38:36;31.35;;;15.65;;
23539;SDS011;11947;50.810;4.394;2023-02-28T05:41:04;33.58;;;15.50;;
23539;SDS011;11947;50.810;4.394;2023-02-28T05:43:31;31.13;;;15.63;;
23539;SDS011;11947;50.810;4.394;2023-02-28T05:45:57;29.00;;;15.25;;
23539;SDS011;11947;50.810;4.394;2023-02-28T05:48:23;32.50;;;15.57;;
23539;SDS011;11947;50.810;4.394;2023-02-28T05:50:48;32.25;;;14.45;;
23539;SDS011;11947;50.810;4.394;2023-02-28T05:53:14;33.85;;;16.45;;
23539;SDS011;11947;50.810;4.394;2023-02-28T05:55:40;32.08;;;16.42;;
23539;SDS011;11947;50.810;4.394;2023-02-28T05:58:07;27.83;;;15.60;;
23539;SDS011;11947;50.810;4.394;2023-02-28T06:00:33;35.15;;;15.48;;
23539;SDS011;11947;50.810;4.394;2023-02-28T06:02:58;29.55;;;15.27;;
23539;SDS011;11947;50.810;4.394;2023-02-28T06:05:26;32.85;;;14.55;;
23539;SDS011;11947;50.810;4.394;2023-02-28T06:07:52;34.30;;;15.30;;
23539;SDS011;11947;50.810;4.394;2023-02-28T06:10:18;30.15;;;15.73;;
23539;SDS011;11947;50.810;4.394;2023-02-28T06:12:44;30.45;;;14.50;;
23539;SDS011;11947;50.810;4.394;2023-02-28T06:15:11;29.38;;;15.05;;
23539;SDS011;11947;50.810;4.394;2023-02-28T06:17:39;31.52;;;15.18;;
23539;SDS011;11947;50.810;4.394;2023-02-28T06:20:06;31.00;;;14.75;;
23539;SDS011;11947;50.810;4.394;2023-02-28T06:22:32;30.23;;;14.65;;
23539;SDS011;11947;50.810;4.394;2023-02-28T06:24:58;38.05;;;14.77;;
23539;SDS011;11947;50.810;4.394;2023-02-28T06:27:23;29.00;;;14.32;;
23539;SDS011;11947;50.810;4.394;2023-02-28T06:29:52;32.10;;;15.10;;
23539;SDS011;11947;50.810;4.394;2023-02-28T06:32:19;27.35;;;14.20;;
23539;SDS011;11947;50.810;4.394;2023-02-28T06:34:44;29.67;;;14.63;;
23539;SDS011;11947;50.810;4.394;2023-02-28T06:37:10;31.15;;;14.77;;
23539;SDS011;11947;50.810;4.394;2023-02-28T06:39:35;35.40;;;14.98;;
23539;SDS011;11947;50.810;4.394;2023-02-28T06:42:01;32.53;;;14.85;;
23539;SDS011;11947;50.810;4.394;2023-02-28T06:44:27;29.48;;;14.65;;
23539;SDS011;11947;50.810;4.394;2023-02-28T06:47:00;29.60;;;14.07;;
23539;SDS011;11947;50.810;4.394;2023-02-28T06:49:30;29.42;;;14.43;;
23539;SDS011;11947;50.810;4.394;2023-02-28T06:51:57;28.48;;;13.70;;
23539;SDS011;11947;50.810;4.394;2023-02-28T06:54:22;32.00;;;14.38;;
23539;SDS011;11947;50.810;4.394;2023-02-28T06:56:48;26.38;;;13.32;;
23539;SDS011;11947;50.810;4.394;2023-02-28T06:59:14;28.55;;;14.50;;
23539;SDS011;11947;50.810;4.394;2023-02-28T07:01:41;32.55;;;14.32;;
23539;SDS011;11947;50.810;4.394;2023-02-28T07:04:06;28.10;;;13.82;;
23539;SDS011;11947;50.810;4.394;2023-02-28T07:06:32;30.77;;;13.20;;
23539;SDS011;11947;50.810;4.394;2023-02-28T07:08:58;32.80;;;13.75;;
23539;SDS011;11947;50.810;4.394;2023-02-28T07:11:25;27.27;;;13.43;;
23539;SDS011;11947;50.810;4.394;2023-02-28T07:13:52;31.25;;;14.23;;
23539;SDS011;11947;50.810;4.394;2023-02-28T07:16:18;29.90;;;13.80;;
23539;SDS011;11947;50.810;4.394;2023-02-28T07:18:44;28.02;;;14.23;;
23539;SDS011;11947;50.810;4.394;2023-02-28T07:21:10;29.92;;;13.30;;
23539;SDS011;11947;50.810;4.394;2023-02-28T07:23:36;26.52;;;13.05;;
23539;SDS011;11947;50.810;4.394;2023-02-28T07:26:03;24.65;;;13.05;;
23539;SDS011;11947;50.810;4.394;2023-02-28T07:28:29;32.70;;;13.30;;
23539;SDS011;11947;50.810;4.394;2023-02-28T07:30:55;30.92;;;13.27;;
23539;SDS011;11947;50.810;4.394;2023-02-28T07:33:20;26.50;;;12.63;;
23539;SDS011;11947;50.810;4.394;2023-02-28T07:35:46;23.30;;;12.50;;
23539;SDS011;11947;50.810;4.394;2023-02-28T07:38:11;26.02;;;13.35;;
23539;SDS011;11947;50.810;4.394;2023-02-28T07:40:38;27.85;;;12.75;;
23539;SDS011;11947;50.810;4.394;2023-02-28T07:43:04;27.92;;;12.88;;
23539;SDS011;11947;50.810;4.394;2023-02-28T07:45:30;25.17;;;12.07;;
23539;SDS011;11947;50.810;4.394;2023-02-28T07:47:57;21.83;;;11.82;;
23539;SDS011;11947;50.810;4.394;2023-02-28T07:50:23;24.45;;;11.10;;
23539;SDS011;11947;50.810;4.394;2023-02-28T07:52:49;24.75;;;10.75;;
23539;SDS011;11947;50.810;4.394;2023-02-28T07:55:14;20.50;;;10.32;;
23539;SDS011;11947;50.810;4.394;2023-02-28T07:57:41;26.98;;;11.30;;
23539;SDS011;11947;50.810;4.394;2023-02-28T08:00:08;19.17;;;10.48;;
23539;SDS011;11947;50.810;4.394;2023-02-28T08:02:35;22.52;;;10.90;;
23539;SDS011;11947;50.810;4.394;2023-02-28T08:05:01;22.02;;;10.77;;
23539;SDS011;11947;50.810;4.394;2023-02-28T08:07:27;21.88;;;10.18;;
23539;SDS011;11947;50.810;4.394;2023-02-28T08:09:53;22.95;;;10.55;;
23539;SDS011;11947;50.810;4.394;2023-02-28T08:12:18;22.90;;;9.73;;
23539;SDS011;11947;50.810;4.394;2023-02-28T08:14:45;20.30;;;9.77;;
23539;SDS011;11947;50.810;4.394;2023-02-28T08:17:10;23.65;;;9.23;;
23539;SDS011;11947;50.810;4.394;2023-02-28T08:19:36;15.82;;;8.60;;
23539;SDS011;11947;50.810;4.394;2023-02-28T08:22:02;16.98;;;8.50;;
23539;SDS011;11947;50.810;4.394;2023-02-28T08:24:28;19.63;;;8.90;;
23539;SDS011;11947;50.810;4.394;2023-02-28T08:26:54;20.65;;;9.05;;
23539;SDS011;11947;50.810;4.394;2023-02-28T08:29:20;18.55;;;8.60;;
23539;SDS011;11947;50.810;4.394;2023-02-28T08:31:45;16.73;;;8.70;;
23539;SDS011;11947;50.810;4.394;2023-02-28T08:34:12;17.35;;;8.82;;
23539;SDS011;11947;50.810;4.394;2023-02-28T08:36:39;23.85;;;8.45;;
23539;SDS011;11947;50.810;4.394;2023-02-28T08:39:05;22.52;;;8.23;;
23539;SDS011;11947;50.810;4.394;2023-02-28T08:41:31;19.35;;;7.60;;
23539;SDS011;11947;50.810;4.394;2023-02-28T08:43:57;14.75;;;7.32;;
23539;SDS011;11947;50.810;4.394;2023-02-28T08:46:23;15.75;;;7.47;;
23539;SDS011;11947;50.810;4.394;2023-02-28T08:48:54;14.50;;;7.43;;
23539;SDS011;11947;50.810;4.394;2023-02-28T08:51:21;17.05;;;7.07;;
23539;SDS011;11947;50.810;4.394;2023-02-28T08:53:51;12.90;;;7.00;;
23539;SDS011;11947;50.810;4.394;2023-02-28T08:56:17;13.07;;;6.65;;
23539;SDS011;11947;50.810;4.394;2023-02-28T08:58:44;17.05;;;7.15;;
23539;SDS011;11947;50.810;4.394;2023-02-28T09:01:18;16.92;;;7.82;;
23539;SDS011;11947;50.810;4.394;2023-02-28T09:03:45;14.32;;;7.25;;
23539;SDS011;11947;50.810;4.394;2023-02-28T09:06:13;13.45;;;6.93;;
23539;SDS011;11947;50.810;4.394;2023-02-28T09:08:39;11.70;;;6.65;;
23539;SDS011;11947;50.810;4.394;2023-02-28T09:11:05;11.98;;;6.32;;
23539;SDS011;11947;50.810;4.394;2023-02-28T09:13:31;13.15;;;6.95;;
23539;SDS011;11947;50.810;4.394;2023-02-28T09:16:00;10.40;;;6.05;;
23539;SDS011;11947;50.810;4.394;2023-02-28T09:18:30;10.95;;;5.95;;
23539;SDS011;11947;50.810;4.394;2023-02-28T09:20:56;11.23;;;5.80;;
23539;SDS011;11947;50.810;4.394;2023-02-28T09:23:22;11.77;;;5.60;;
23539;SDS011;11947;50.810;4.394;2023-02-28T09:25:50;11.93;;;5.50;;
23539;SDS011;11947;50.810;4.394;2023-02-28T09:28:17;10.40;;;5.28;;
23539;SDS011;11947;50.810;4.394;2023-02-28T09:30:47;11.75;;;4.57;;
23539;SDS011;11947;50.810;4.394;2023-02-28T09:33:14;9.68;;;5.15;;
23539;SDS011;11947;50.810;4.394;2023-02-28T09:35:41;8.32;;;5.22;;
23539;SDS011;11947;50.810;4.394;2023-02-28T09:38:08;10.43;;;5.45;;
23539;SDS011;11947;50.810;4.394;2023-02-28T09:40:54;12.48;;;5.35;;
23539;SDS011;11947;50.810;4.394;2023-02-28T09:43:24;9.23;;;4.53;;
23539;SDS011;11947;50.810;4.394;2023-02-28T09:49:07;7.53;;;4.47;;
23539;SDS011;11947;50.810;4.394;2023-02-28T09:54:18;9.43;;;4.28;;
23539;SDS011;11947;50.810;4.394;2023-02-28T09:57:07;7.47;;;4.30;;
23539;SDS011;11947;50.810;4.394;2023-02-28T09:59:44;8.90;;;4.65;;
23539;SDS011;11947;50.810;4.394;2023-02-28T10:02:37;7.88;;;4.22;;
23539;SDS011;11947;50.810;4.394;2023-02-28T10:05:11;8.38;;;4.10;;
23539;SDS011;11947;50.810;4.394;2023-02-28T10:10:52;11.48;;;4.00;;
23539;SDS011;11947;50.810;4.394;2023-02-28T10:13:46;9.02;;;4.15;;
23539;SDS011;11947;50.810;4.394;2023-02-28T10:16:20;9.55;;;4.20;;
23539;SDS011;11947;50.810;4.394;2023-02-28T10:24:20;7.03;;;3.67;;
23539;SDS011;11947;50.810;4.394;2023-02-28T10:27:29;8.52;;;3.72;;
23539;SDS011;11947;50.810;4.394;2023-02-28T10:29:56;7.10;;;4.05;;
23539;SDS011;11947;50.810;4.394;2023-02-28T10:32:34;6.97;;;3.40;;
23539;SDS011;11947;50.810;4.394;2023-02-28T10:35:09;6.10;;;3.30;;
23539;SDS011;11947;50.810;4.394;2023-02-28T10:37:39;4.90;;;2.80;;
23539;SDS011;11947;50.810;4.394;2023-02-28T10:40:06;5.22;;;2.83;;
23539;SDS011;11947;50.810;4.394;2023-02-28T10:43:00;5.63;;;2.83;;
23539;SDS011;11947;50.810;4.394;2023-02-28T10:45:26;5.70;;;3.15;;
23539;SDS011;11947;50.810;4.394;2023-02-28T10:58:47;8.82;;;3.50;;
23539;SDS011;11947;50.810;4.394;2023-02-28T11:03:51;6.57;;;2.80;;
23539;SDS011;11947;50.810;4.394;2023-02-28T11:06:31;6.45;;;3.28;;
23539;SDS011;11947;50.810;4.394;2023-02-28T11:08:59;6.38;;;3.38;;
23539;SDS011;11947;50.810;4.394;2023-02-28T11:11:29;5.75;;;3.42;;
23539;SDS011;11947;50.810;4.394;2023-02-28T11:14:07;7.22;;;3.42;;
23539;SDS011;11947;50.810;4.394;2023-02-28T11:16:47;5.60;;;3.58;;
23539;SDS011;11947;50.810;4.394;2023-02-28T11:19:23;6.80;;;3.10;;
23539;SDS011;11947;50.810;4.394;2023-02-28T11:21:55;6.13;;;3.17;;
23539;SDS011;11947;50.810;4.394;2023-02-28T11:24:31;4.45;;;3.00;;
23539;SDS011;11947;50.810;4.394;2023-02-28T11:27:01;6.45;;;3.22;;
23539;SDS011;11947;50.810;4.394;2023-02-28T11:29:31;6.88;;;2.88;;
23539;SDS011;11947;50.810;4.394;2023-02-28T11:34:28;4.72;;;3.38;;
23539;SDS011;11947;50.810;4.394;2023-02-28T11:36:55;11.00;;;3.40;;
23539;SDS011;11947;50.810;4.394;2023-02-28T11:39:23;4.45;;;3.15;;
23539;SDS011;11947;50.810;4.394;2023-02-28T11:44:43;6.43;;;3.80;;
23539;SDS011;11947;50.810;4.394;2023-02-28T11:47:17;7.20;;;3.88;;
23539;SDS011;11947;50.810;4.394;2023-02-28T11:50:16;4.90;;;3.33;;
23539;SDS011;11947;50.810;4.394;2023-02-28T11:52:57;5.97;;;3.97;;
23539;SDS011;11947;50.810;4.394;2023-02-28T11:55:39;6.00;;;3.90;;
23539;SDS011;11947;50.810;4.394;2023-02-28T11:58:14;6.75;;;3.90;;
23539;SDS011;11947;50.810;4.394;2023-02-28T12:01:04;8.48;;;4.00;;
23539;SDS011;11947;50.810;4.394;2023-02-28T12:07:01;4.53;;;3.13;;
23539;SDS011;11947;50.810;4.394;2023-02-28T12:09:53;5.85;;;3.72;;
23539;SDS011;11947;50.810;4.394;2023-02-28T12:18:16;5.60;;;3.50;;
23539;SDS011;11947;50.810;4.394;2023-02-28T12:25:09;6.32;;;3.15;;
23539;SDS011;11947;50.810;4.394;2023-02-28T12:27:05;6.00;;;3.45;;
23539;SDS011;11947;50.810;4.394;2023-02-28T12:30:21;5.32;;;3.20;;
23539;SDS011;11947;50.810;4.394;2023-02-28T12:32:25;5.32;;;3.50;;
23539;SDS011;11947;50.810;4.394;2023-02-28T12:34:57;8.20;;;3.10;;
23539;SDS011;11947;50.810;4.394;2023-02-28T12:37:34;6.85;;;3.30;;
23539;SDS011;11947;50.810;4.394;2023-02-28T12:40:12;4.65;;;2.88;;
23539;SDS011;11947;50.810;4.394;2023-02-28T12:42:45;4.50;;;3.35;;
23539;SDS011;11947;50.810;4.394;2023-02-28T12:45:18;5.72;;;3.30;;
23539;SDS011;11947;50.810;4.394;2023-02-28T12:47:48;5.05;;;3.38;;
23539;SDS011;11947;50.810;4.394;2023-02-28T12:50:17;5.55;;;2.92;;
23539;SDS011;11947;50.810;4.394;2023-02-28T12:58:08;5.82;;;3.42;;
23539;SDS011;11947;50.810;4.394;2023-02-28T13:09:25;4.38;;;3.22;;
23539;SDS011;11947;50.810;4.394;2023-02-28T13:11:54;6.10;;;3.65;;
23539;SDS011;11947;50.810;4.394;2023-02-28T13:14:23;5.55;;;3.55;;
23539;SDS011;11947;50.810;4.394;2023-02-28T13:19:25;3.90;;;3.03;;
23539;SDS011;11947;50.810;4.394;2023-02-28T13:21:53;4.75;;;3.60;;
23539;SDS011;11947;50.810;4.394;2023-02-28T13:27:11;5.18;;;3.42;;
23539;SDS011;11947;50.810;4.394;2023-02-28T13:29:49;4.38;;;3.50;;
23539;SDS011;11947;50.810;4.394;2023-02-28T13:55:24;6.22;;;3.30;;
23539;SDS011;11947;50.810;4.394;2023-02-28T14:05:39;5.40;;;3.53;;
23539;SDS011;11947;50.810;4.394;2023-02-28T14:08:13;5.82;;;3.42;;
23539;SDS011;11947;50.810;4.394;2023-02-28T14:10:46;7.03;;;3.60;;
23539;SDS011;11947;50.810;4.394;2023-02-28T14:16:05;9.75;;;3.80;;
23539;SDS011;11947;50.810;4.394;2023-02-28T14:18:33;5.93;;;3.85;;
23539;SDS011;11947;50.810;4.394;2023-02-28T14:21:02;4.60;;;3.38;;
23539;SDS011;11947;50.810;4.394;2023-02-28T14:32:35;6.13;;;3.70;;
23539;SDS011;11947;50.810;4.394;2023-02-28T14:35:20;5.82;;;3.67;;
23539;SDS011;11947;50.810;4.394;2023-02-28T14:37:50;5.45;;;3.58;;
23539;SDS011;11947;50.810;4.394;2023-02-28T14:40:37;5.78;;;3.47;;
23539;SDS011;11947;50.810;4.394;2023-02-28T14:43:04;5.20;;;3.45;;
23539;SDS011;11947;50.810;4.394;2023-02-28T14:45:47;7.43;;;4.00;;
23539;SDS011;11947;50.810;4.394;2023-02-28T14:48:22;6.28;;;3.67;;
23539;SDS011;11947;50.810;4.394;2023-02-28T14:50:51;5.72;;;3.70;;
23539;SDS011;11947;50.810;4.394;2023-02-28T14:53:25;10.38;;;3.90;;
23539;SDS011;11947;50.810;4.394;2023-02-28T14:55:53;6.32;;;3.65;;
23539;SDS011;11947;50.810;4.394;2023-02-28T15:00:50;8.48;;;4.53;;
23539;SDS011;11947;50.810;4.394;2023-02-28T15:03:29;8.73;;;4.00;;
23539;SDS011;11947;50.810;4.394;2023-02-28T15:06:01;7.97;;;4.60;;
23539;SDS011;11947;50.810;4.394;2023-02-28T15:08:29;6.90;;;4.40;;
23539;SDS011;11947;50.810;4.394;2023-02-28T15:11:01;6.85;;;3.85;;
23539;SDS011;11947;50.810;4.394;2023-02-28T15:13:37;5.85;;;4.18;;
23539;SDS011;11947;50.810;4.394;2023-02-28T15:16:13;6.60;;;4.35;;
23539;SDS011;11947;50.810;4.394;2023-02-28T15:18:50;9.23;;;3.80;;
23539;SDS011;11947;50.810;4.394;2023-02-28T15:26:50;7.97;;;4.43;;
23539;SDS011;11947;50.810;4.394;2023-02-28T15:29:20;9.88;;;4.53;;
23539;SDS011;11947;50.810;4.394;2023-02-28T15:31:55;8.18;;;4.60;;
23539;SDS011;11947;50.810;4.394;2023-02-28T15:34:33;6.53;;;4.30;;
23539;SDS011;11947;50.810;4.394;2023-02-28T15:37:01;9.80;;;4.28;;
23539;SDS011;11947;50.810;4.394;2023-02-28T15:39:27;8.55;;;4.95;;
23539;SDS011;11947;50.810;4.394;2023-02-28T15:42:12;8.40;;;4.45;;
23539;SDS011;11947;50.810;4.394;2023-02-28T15:44:47;8.32;;;4.25;;
23539;SDS011;11947;50.810;4.394;2023-02-28T15:47:17;6.47;;;4.30;;
23539;SDS011;11947;50.810;4.394;2023-02-28T15:49:49;10.25;;;4.60;;
23539;SDS011;11947;50.810;4.394;2023-02-28T15:52:19;8.48;;;4.70;;
23539;SDS011;11947;50.810;4.394;2023-02-28T15:54:50;7.22;;;4.57;;
23539;SDS011;11947;50.810;4.394;2023-02-28T15:57:18;8.35;;;4.93;;
23539;SDS011;11947;50.810;4.394;2023-02-28T15:59:54;9.73;;;4.93;;
23539;SDS011;11947;50.810;4.394;2023-02-28T16:02:32;11.25;;;4.78;;
23539;SDS011;11947;50.810;4.394;2023-02-28T16:07:31;11.05;;;5.35;;
23539;SDS011;11947;50.810;4.394;2023-02-28T16:09:58;9.90;;;4.93;;
23539;SDS011;11947;50.810;4.394;2023-02-28T16:12:25;11.02;;;4.75;;
23539;SDS011;11947;50.810;4.394;2023-02-28T16:14:52;9.75;;;4.88;;
23539;SDS011;11947;50.810;4.394;2023-02-28T16:17:29;7.85;;;4.95;;
23539;SDS011;11947;50.810;4.394;2023-02-28T16:19:58;11.48;;;4.80;;
23539;SDS011;11947;50.810;4.394;2023-02-28T16:22:24;7.88;;;4.72;;
23539;SDS011;11947;50.810;4.394;2023-02-28T16:24:51;12.88;;;5.18;;
23539;SDS011;11947;50.810;4.394;2023-02-28T16:27:18;8.95;;;4.68;;
23539;SDS011;11947;50.810;4.394;2023-02-28T16:30:00;7.63;;;4.50;;
23539;SDS011;11947;50.810;4.394;2023-02-28T16:32:26;8.50;;;4.70;;
23539;SDS011;11947;50.810;4.394;2023-02-28T16:35:00;8.80;;;4.68;;
23539;SDS011;11947;50.810;4.394;2023-02-28T16:37:26;9.35;;;4.78;;
23539;SDS011;11947;50.810;4.394;2023-02-28T16:39:52;12.70;;;5.43;;
23539;SDS011;11947;50.810;4.394;2023-02-28T16:42:22;8.93;;;4.72;;
23539;SDS011;11947;50.810;4.394;2023-02-28T16:44:52;8.27;;;4.57;;
23539;SDS011;11947;50.810;4.394;2023-02-28T16:47:18;8.00;;;5.18;;
23539;SDS011;11947;50.810;4.394;2023-02-28T16:49:45;8.43;;;5.10;;
23539;SDS011;11947;50.810;4.394;2023-02-28T16:52:12;9.55;;;4.93;;
23539;SDS011;11947;50.810;4.394;2023-02-28T16:54:38;10.55;;;4.85;;
23539;SDS011;11947;50.810;4.394;2023-02-28T16:57:05;9.65;;;4.57;;
23539;SDS011;11947;50.810;4.394;2023-02-28T16:59:31;11.63;;;5.00;;
23539;SDS011;11947;50.810;4.394;2023-02-28T17:01:58;10.45;;;4.57;;
23539;SDS011;11947;50.810;4.394;2023-02-28T17:04:26;9.75;;;4.55;;
23539;SDS011;11947;50.810;4.394;2023-02-28T17:06:52;10.85;;;4.40;;
23539;SDS011;11947;50.810;4.394;2023-02-28T17:09:19;11.68;;;5.25;;
23539;SDS011;11947;50.810;4.394;2023-02-28T17:11:46;10.60;;;4.82;;
23539;SDS011;11947;50.810;4.394;2023-02-28T17:14:12;10.82;;;4.53;;
23539;SDS011;11947;50.810;4.394;2023-02-28T17:16:39;7.50;;;4.30;;
23539;SDS011;11947;50.810;4.394;2023-02-28T17:19:05;8.63;;;4.28;;
23539;SDS011;11947;50.810;4.394;2023-02-28T17:21:35;8.27;;;4.35;;
23539;SDS011;11947;50.810;4.394;2023-02-28T17:24:02;13.10;;;5.03;;
23539;SDS011;11947;50.810;4.394;2023-02-28T17:26:28;8.20;;;4.22;;
23539;SDS011;11947;50.810;4.394;2023-02-28T17:28:54;9.02;;;4.20;;
23539;SDS011;11947;50.810;4.394;2023-02-28T17:31:21;12.48;;;4.50;;
23539;SDS011;11947;50.810;4.394;2023-02-28T17:33:47;9.45;;;4.97;;